createdAt,value
2022-10-24T00:02:41.306Z,101669.50
2022-10-24T00:05:48.813Z,101660.38
2022-10-24T00:08:51.338Z,101693.72
2022-10-24T00:15:27.323Z,101697.44
2022-10-24T00:18:29.550Z,101692.22
2022-10-24T00:21:31.702Z,101678.28
2022-10-24T00:24:34.111Z,101675.06
2022-10-24T00:27:36.786Z,101653.56
2022-10-24T00:30:38.981Z,101649.66
2022-10-24T00:33:41.116Z,101663.22
2022-10-24T00:36:43.897Z,101660.69
2022-10-24T00:39:45.903Z,101665.09
2022-10-24T00:42:48.994Z,101657.31
2022-10-24T00:45:55.213Z,101665.78
2022-10-24T00:48:57.453Z,101644.56
2022-10-24T00:52:04.086Z,101650.69
2022-10-24T00:55:06.787Z,101645.91
2022-10-24T00:58:09.701Z,101652.38
2022-10-24T01:01:14.054Z,101658.31
2022-10-24T01:04:16.280Z,101653.25
2022-10-24T01:07:23.807Z,101660.50
2022-10-24T01:11:04.853Z,101665.09
2022-10-24T01:14:12.141Z,101652.91
2022-10-24T01:17:22.922Z,101632.41
2022-10-24T01:20:37.317Z,101666.09
2022-10-24T01:24:05.340Z,101646.09
2022-10-24T01:27:44.551Z,101665.06
2022-10-24T01:31:03.160Z,101651.53
2022-10-24T01:34:30.224Z,101655.41
2022-10-24T01:37:34.951Z,101680.63
2022-10-24T01:40:57.413Z,101676.06
2022-10-24T01:44:09.973Z,101671.50
2022-10-24T01:47:18.851Z,101655.91
2022-10-24T01:50:24.025Z,101663.19
2022-10-24T01:53:29.419Z,101659.97
2022-10-24T01:56:31.357Z,101669.63
2022-10-24T01:59:33.582Z,101683.69
2022-10-24T02:02:43.640Z,101675.53
2022-10-24T02:05:52.557Z,101671.47
2022-10-24T02:08:58.783Z,101670.28
2022-10-24T02:12:01.587Z,101683.66
2022-10-24T02:15:11.330Z,101690.59
2022-10-24T02:18:13.805Z,101663.81
2022-10-24T02:21:36.394Z,101686.84
2022-10-24T02:24:56.481Z,101674.16
2022-10-24T02:28:18.397Z,101684.16
2022-10-24T02:31:25.046Z,101653.66
2022-10-24T02:34:32.351Z,101661.59
2022-10-24T02:37:38.825Z,101678.69
2022-10-24T02:40:44.933Z,101670.22
2022-10-24T02:43:51.015Z,101675.31
2022-10-24T02:46:57.339Z,101677.19
2022-10-24T02:49:59.443Z,101676.88
2022-10-24T02:53:01.693Z,101680.75
2022-10-24T02:56:04.426Z,101677.00
2022-10-24T02:59:06.689Z,101675.47
2022-10-24T03:02:09.305Z,101647.03
2022-10-24T03:05:11.790Z,101667.19
2022-10-24T03:08:14.475Z,101651.59
2022-10-24T03:11:17.923Z,101636.16
2022-10-24T03:14:20.250Z,101647.50
2022-10-24T03:17:23.525Z,101644.78
2022-10-24T03:20:25.862Z,101623.78
2022-10-24T03:23:28.853Z,101640.91
2022-10-24T03:26:30.916Z,101619.56
2022-10-24T03:29:33.219Z,101643.78
2022-10-24T03:32:35.916Z,101645.13
2022-10-24T03:35:38.883Z,101638.19
2022-10-24T03:38:41.139Z,101642.91
2022-10-24T03:41:43.347Z,101605.41
2022-10-24T03:44:45.503Z,101612.19
2022-10-24T03:47:47.439Z,101637.47
2022-10-24T03:50:49.437Z,101628.25
2022-10-24T03:53:51.510Z,101600.50
2022-10-24T03:56:53.878Z,101625.69
2022-10-24T03:59:57.318Z,101621.13
2022-10-24T04:02:59.492Z,101618.94
2022-10-24T04:06:02.125Z,101617.91
2022-10-24T04:09:07.492Z,101592.19
2022-10-24T04:12:09.689Z,101623.19
2022-10-24T04:15:11.855Z,101599.16
2022-10-24T04:18:15.846Z,101617.44
2022-10-24T04:21:21.592Z,101594.91
2022-10-24T04:24:25.096Z,101593.09
2022-10-24T04:27:27.445Z,101608.81
2022-10-24T04:30:30.058Z,101593.44
2022-10-24T04:33:32.188Z,101605.13
2022-10-24T04:36:35.116Z,101602.78
2022-10-24T04:39:37.402Z,101606.66
2022-10-24T04:42:39.731Z,101588.16
2022-10-24T04:45:41.811Z,101613.53
2022-10-24T04:48:44.014Z,101598.44
2022-10-24T04:51:47.418Z,101602.16
2022-10-24T04:54:49.540Z,101621.09
2022-10-24T04:57:52.960Z,101618.75
2022-10-24T05:00:55.932Z,101610.81
2022-10-24T05:03:58.112Z,101626.03
2022-10-24T05:07:00.274Z,101611.19
2022-10-24T05:10:02.357Z,101646.06
2022-10-24T05:13:05.878Z,101630.00
2022-10-24T05:16:08.123Z,101631.41
2022-10-24T05:19:10.238Z,101621.38
2022-10-24T05:22:12.363Z,101612.59
2022-10-24T05:25:14.508Z,101640.69
2022-10-24T05:28:16.596Z,101677.63
2022-10-24T05:31:18.791Z,101676.75
2022-10-24T05:34:20.873Z,101679.97
2022-10-24T05:37:23.699Z,101664.06
2022-10-24T05:40:26.824Z,101690.75
2022-10-24T05:43:28.869Z,101695.69
2022-10-24T05:46:30.827Z,101672.25
2022-10-24T05:49:34.077Z,101674.97
2022-10-24T05:52:36.722Z,101693.19
2022-10-24T05:55:40.428Z,101681.78
2022-10-24T05:58:42.563Z,101682.13
2022-10-24T06:01:44.799Z,101624.03
2022-10-24T06:04:48.280Z,101696.78
2022-10-24T06:07:50.462Z,101680.44
2022-10-24T06:10:53.823Z,101700.53
2022-10-24T06:13:56.959Z,101676.31
2022-10-24T06:16:59.232Z,101657.56
2022-10-24T06:20:01.322Z,101691.88
2022-10-24T06:23:03.584Z,101671.13
2022-10-24T06:26:11.099Z,101680.91
2022-10-24T06:29:13.252Z,101679.78
2022-10-24T06:32:17.530Z,101673.97
2022-10-24T06:35:19.802Z,101687.19
2022-10-24T06:38:21.822Z,101681.28
2022-10-24T06:41:26.074Z,101673.97
2022-10-24T06:44:28.560Z,101640.69
2022-10-24T06:47:33.380Z,101653.84
2022-10-24T06:50:36.985Z,101661.31
2022-10-24T06:53:41.680Z,101643.41
2022-10-24T06:56:43.758Z,101661.56
2022-10-24T06:59:46.438Z,101648.03
2022-10-24T07:02:48.744Z,101650.97
2022-10-24T07:05:56.991Z,101659.09
2022-10-24T07:09:01.004Z,101672.97
2022-10-24T07:12:03.061Z,101661.34
2022-10-24T07:15:08.658Z,101653.81
2022-10-24T07:18:14.951Z,101649.84
2022-10-24T07:21:28.874Z,101669.25
2022-10-24T07:24:30.810Z,101659.44
2022-10-24T07:27:34.130Z,101651.84
2022-10-24T07:30:36.206Z,101652.25
2022-10-24T07:33:40.047Z,101645.91
2022-10-24T07:36:43.938Z,101637.09
2022-10-24T07:39:47.622Z,101644.00
2022-10-24T07:42:49.756Z,101618.41
2022-10-24T07:45:52.329Z,101635.69
2022-10-24T07:48:56.238Z,101619.06
2022-10-24T07:51:58.330Z,101627.81
2022-10-24T07:55:00.839Z,101607.59
2022-10-24T07:58:02.965Z,101619.75
2022-10-24T08:01:08.781Z,101636.19
2022-10-24T08:04:12.363Z,101643.78
2022-10-24T08:07:14.458Z,101640.38
2022-10-24T08:10:18.598Z,101636.59
2022-10-24T08:13:20.511Z,101629.69
2022-10-24T08:16:26.290Z,101659.94
2022-10-24T08:19:28.720Z,101630.66
2022-10-24T08:22:31.131Z,101628.22
2022-10-24T08:25:33.520Z,101643.91
2022-10-24T08:28:37.022Z,101638.56
2022-10-24T08:31:39.272Z,101641.41
2022-10-24T08:34:41.396Z,101635.13
2022-10-24T08:37:43.894Z,101641.78
2022-10-24T08:40:49.417Z,101645.44
2022-10-24T08:43:53.662Z,101640.94
2022-10-24T08:47:10.077Z,101650.41
2022-10-24T08:50:30.710Z,101648.63
2022-10-24T08:53:34.432Z,101633.19
2022-10-24T08:56:36.640Z,101611.91
2022-10-24T08:59:39.749Z,101621.31
2022-10-24T09:02:45.205Z,101622.53
2022-10-24T09:05:51.826Z,101623.00
2022-10-24T09:09:00.032Z,101624.22
2022-10-24T09:12:21.612Z,101609.38
2022-10-24T09:15:29.456Z,101618.31
2022-10-24T09:18:39.911Z,101608.53
2022-10-24T09:21:43.555Z,101612.09
2022-10-24T09:24:48.626Z,101601.88
2022-10-24T09:27:52.250Z,101591.47
2022-10-24T09:30:54.280Z,101586.03
2022-10-24T09:34:00.614Z,101602.72
2022-10-24T09:37:02.656Z,101595.69
2022-10-24T09:40:12.077Z,101585.56
2022-10-24T09:43:17.154Z,101585.94
2022-10-24T09:46:26.529Z,101577.78
2022-10-24T09:49:41.510Z,101575.16
2022-10-24T09:52:53.514Z,101559.16
2022-10-24T09:56:03.027Z,101558.94
2022-10-24T09:59:44.463Z,101567.78
2022-10-24T10:03:07.372Z,101566.03
2022-10-24T10:06:21.016Z,101563.59
2022-10-24T10:09:35.478Z,101553.47
2022-10-24T10:12:44.515Z,101553.13
2022-10-24T10:15:50.657Z,101536.63
2022-10-24T10:19:15.475Z,101543.25
2022-10-24T10:22:32.987Z,101552.53
2022-10-24T10:25:35.022Z,101544.06
2022-10-24T10:28:43.536Z,101526.00
2022-10-24T10:31:45.463Z,101546.00
2022-10-24T10:34:56.930Z,101536.94
2022-10-24T10:38:11.864Z,101525.63
2022-10-24T10:41:38.834Z,101519.50
2022-10-24T10:44:56.369Z,101516.84
2022-10-24T10:48:07.643Z,101493.56
2022-10-24T10:51:27.562Z,101501.72
2022-10-24T10:54:37.415Z,101517.81
2022-10-24T10:57:59.064Z,101514.00
2022-10-24T11:01:16.820Z,101496.34
2022-10-24T11:04:44.762Z,101489.09
2022-10-24T11:07:47.040Z,101506.34
2022-10-24T11:10:57.942Z,101500.38
2022-10-24T11:14:27.620Z,101494.25
2022-10-24T11:17:38.130Z,101500.56
2022-10-24T11:20:55.991Z,101472.22
2022-10-24T11:24:09.847Z,101479.69
2022-10-24T11:27:26.626Z,101451.50
2022-10-24T11:30:58.905Z,101449.94
2022-10-24T11:34:34.744Z,101471.47
2022-10-24T11:37:42.131Z,101464.13
2022-10-24T11:40:47.058Z,101456.78
2022-10-24T11:43:55.054Z,101450.69
2022-10-24T11:47:10.591Z,101436.06
2022-10-24T11:50:24.721Z,101417.78
2022-10-24T11:53:34.615Z,101429.72
2022-10-24T11:56:43.131Z,101421.16
2022-10-24T11:59:45.052Z,101410.88
2022-10-24T12:02:53.045Z,101411.34
2022-10-24T12:06:16.547Z,101406.97
2022-10-24T12:09:33.617Z,101400.69
2022-10-24T12:13:14.238Z,101400.69
2022-10-24T12:16:31.707Z,101394.81
2022-10-24T12:19:34.215Z,101389.09
2022-10-24T12:22:40.577Z,101383.19
2022-10-24T12:25:47.297Z,101377.31
2022-10-24T12:28:56.108Z,101367.81
2022-10-24T12:31:58.716Z,101362.16
2022-10-24T12:35:29.004Z,101366.13
2022-10-24T12:38:28.196Z,101378.94
2022-10-24T12:41:33.273Z,101381.91
2022-10-24T12:44:41.377Z,101363.84
2022-10-24T12:48:04.513Z,101374.59
2022-10-24T12:51:26.582Z,101380.25
2022-10-24T12:54:45.875Z,101372.66
2022-10-24T12:57:48.082Z,101368.91
2022-10-24T13:01:04.996Z,101364.88
2022-10-24T13:04:34.448Z,101340.63
2022-10-24T13:07:57.746Z,101360.63
2022-10-24T13:11:37.373Z,101365.97
2022-10-24T13:15:07.476Z,101368.13
2022-10-24T13:18:24.789Z,101371.06
2022-10-24T13:21:32.729Z,101367.50
2022-10-24T13:24:40.115Z,101363.06
2022-10-24T13:27:42.292Z,101360.81
2022-10-24T13:30:47.359Z,101368.78
2022-10-24T13:33:53.427Z,101363.34
2022-10-24T13:37:02.860Z,101350.50
2022-10-24T13:40:20.538Z,101363.34
2022-10-24T13:43:22.729Z,101363.13
2022-10-24T13:46:59.335Z,101353.22
2022-10-24T13:50:06.930Z,101358.09
2022-10-24T13:53:30.320Z,101361.00
2022-10-24T13:56:38.451Z,101352.19
2022-10-24T13:59:40.339Z,101355.56
2022-10-24T14:02:43.038Z,101356.97
2022-10-24T14:05:49.926Z,101333.84
2022-10-24T14:09:03.943Z,101347.13
2022-10-24T14:12:17.745Z,101335.53
2022-10-24T14:15:22.788Z,101348.97
2022-10-24T14:18:24.941Z,101347.69
2022-10-24T14:21:26.943Z,101334.91
2022-10-24T14:24:32.081Z,101341.63
2022-10-24T14:27:35.471Z,101340.38
2022-10-24T14:30:37.499Z,101343.50
2022-10-24T14:33:45.749Z,101338.91
2022-10-24T14:36:48.112Z,101324.56
2022-10-24T14:39:50.478Z,101318.13
2022-10-24T14:42:53.746Z,101331.97
2022-10-24T14:46:17.658Z,101314.28
2022-10-24T14:49:26.367Z,101331.72
2022-10-24T14:52:36.917Z,101329.19
2022-10-24T14:55:39.609Z,101308.16
2022-10-24T14:58:41.705Z,101334.38
2022-10-24T15:01:53.909Z,101335.22
2022-10-24T15:05:16.137Z,101339.16
2022-10-24T15:08:22.758Z,101334.78
2022-10-24T15:11:29.193Z,101340.38
2022-10-24T15:14:40.507Z,101340.81
2022-10-24T15:17:45.522Z,101329.03
2022-10-24T15:20:51.069Z,101341.00
2022-10-24T15:24:00.987Z,101339.50
2022-10-24T15:27:11.616Z,101322.00
2022-10-24T15:30:23.346Z,101319.75
2022-10-24T15:33:25.414Z,101320.19
2022-10-24T15:36:31.604Z,101330.66
2022-10-24T15:39:34.015Z,101333.88
2022-10-24T15:42:36.032Z,101336.97
2022-10-24T15:45:38.373Z,101327.22
2022-10-24T15:48:41.730Z,101337.81
2022-10-24T15:51:50.898Z,101330.63
2022-10-24T15:55:02.663Z,101341.66
2022-10-24T15:58:11.916Z,101343.06
2022-10-24T16:01:23.960Z,101341.56
2022-10-24T16:04:30.417Z,101331.56
2022-10-24T16:07:32.833Z,101322.00
2022-10-24T16:10:38.202Z,101338.41
2022-10-24T16:13:43.105Z,101318.34
2022-10-24T16:16:45.570Z,101328.09
2022-10-24T16:19:47.750Z,101343.66
2022-10-24T16:22:53.321Z,101344.66
2022-10-24T16:25:56.217Z,101341.31
2022-10-24T16:29:01.118Z,101342.78
2022-10-24T16:32:08.331Z,101353.13
2022-10-24T16:35:15.970Z,101339.03
2022-10-24T16:38:21.504Z,101342.91
2022-10-24T16:41:26.496Z,101357.97
2022-10-24T16:44:29.241Z,101350.56
2022-10-24T16:47:32.816Z,101348.88
2022-10-24T16:50:35.275Z,101360.94
2022-10-24T16:53:37.425Z,101358.91
2022-10-24T16:56:39.515Z,101357.03
2022-10-24T16:59:58.529Z,101368.38
2022-10-24T17:03:00.537Z,101363.78
2022-10-24T17:06:03.695Z,101356.84
2022-10-24T17:09:05.722Z,101357.97
2022-10-24T17:12:08.908Z,101352.69
2022-10-24T17:15:12.108Z,101345.59
2022-10-24T17:18:14.196Z,101328.38
2022-10-24T17:21:17.674Z,101342.69
2022-10-24T17:24:25.770Z,101314.66
2022-10-24T17:27:28.114Z,101306.22
2022-10-24T17:30:30.867Z,101303.22
2022-10-24T17:33:36.242Z,101295.44
2022-10-24T17:36:43.094Z,101292.94
2022-10-24T17:39:59.256Z,101299.00
2022-10-24T17:43:03.241Z,101297.50
2022-10-24T17:46:05.514Z,101288.22
2022-10-24T17:49:10.701Z,101297.50
2022-10-24T17:52:17.717Z,101289.28
2022-10-24T17:58:51.259Z,101304.50
2022-10-24T18:01:53.285Z,101302.28
2022-10-24T18:04:55.514Z,101300.66
2022-10-24T18:07:58.177Z,101274.72
2022-10-24T18:11:02.555Z,101301.69
2022-10-24T18:14:04.670Z,101295.63
2022-10-24T18:17:06.858Z,101285.28
2022-10-24T18:20:09.796Z,101280.22
2022-10-24T18:23:11.887Z,101276.50
2022-10-24T18:26:19.312Z,101278.19
2022-10-24T18:29:21.299Z,101280.78
2022-10-24T18:32:23.500Z,101264.75
2022-10-24T18:35:27.543Z,101276.63
2022-10-24T18:38:32.600Z,101260.44
2022-10-24T18:41:42.583Z,101286.84
2022-10-24T18:44:50.885Z,101275.41
2022-10-24T18:47:53.269Z,101284.84
2022-10-24T18:50:55.423Z,101285.41
2022-10-24T18:54:04.022Z,101290.16
2022-10-24T18:57:23.122Z,101297.13
2022-10-24T19:00:29.559Z,101275.16
2022-10-24T19:03:37.152Z,101286.28
2022-10-24T19:06:41.168Z,101277.38
2022-10-24T19:09:43.961Z,101284.97
2022-10-24T19:12:46.633Z,101264.03
2022-10-24T19:16:05.519Z,101283.50
2022-10-24T19:19:09.355Z,101285.03
2022-10-24T19:22:11.404Z,101289.06
2022-10-24T19:25:15.628Z,101288.69
2022-10-24T19:28:20.104Z,101289.66
2022-10-24T19:31:23.530Z,101294.19
2022-10-24T19:34:27.000Z,101284.59
2022-10-24T19:37:29.036Z,101286.81
2022-10-24T19:40:31.183Z,101287.50
2022-10-24T19:43:33.238Z,101282.59
2022-10-24T19:46:35.597Z,101280.50
2022-10-24T19:49:39.280Z,101262.22
2022-10-24T19:52:41.420Z,101277.44
2022-10-24T19:55:44.313Z,101293.28
2022-10-24T19:58:46.891Z,101300.88
2022-10-24T20:01:49.453Z,101305.75
2022-10-24T20:04:52.355Z,101287.66
2022-10-24T20:07:54.344Z,101281.41
2022-10-24T20:10:56.462Z,101293.78
2022-10-24T20:13:58.725Z,101280.09
2022-10-24T20:17:01.136Z,101290.09
2022-10-24T20:20:05.081Z,101295.31
2022-10-24T20:23:07.115Z,101278.28
2022-10-24T20:26:18.265Z,101274.09
2022-10-24T20:29:20.367Z,101284.41
2022-10-24T20:32:22.408Z,101285.75
2022-10-24T20:38:28.791Z,101292.84
2022-10-24T20:41:31.010Z,101292.44
2022-10-24T20:44:33.152Z,101288.88
2022-10-24T20:47:36.397Z,101282.63
2022-10-24T20:50:38.342Z,101277.56
2022-10-24T20:53:41.787Z,101282.13
2022-10-24T20:56:46.884Z,101285.63
2022-10-24T20:59:49.006Z,101277.22
2022-10-24T21:02:51.978Z,101261.16
2022-10-24T21:05:54.017Z,101255.06
2022-10-24T21:08:58.616Z,101277.84
2022-10-24T21:12:01.048Z,101263.00
2022-10-24T21:15:03.286Z,101255.69
2022-10-24T21:18:05.998Z,101261.47
2022-10-24T21:21:13.312Z,101260.28
2022-10-24T21:24:18.213Z,101260.56
2022-10-24T21:27:20.581Z,101252.34
2022-10-24T21:30:22.775Z,101254.31
2022-10-24T21:33:24.866Z,101259.22
2022-10-24T21:36:26.943Z,101260.41
2022-10-24T21:39:28.848Z,101256.03
2022-10-24T21:42:33.344Z,101247.69
2022-10-24T21:45:35.630Z,101261.94
2022-10-24T21:48:38.191Z,101259.38
2022-10-24T21:51:42.935Z,101250.13
2022-10-24T21:54:44.960Z,101261.19
2022-10-24T21:57:46.896Z,101241.81
2022-10-24T22:00:48.998Z,101253.13
2022-10-24T22:03:50.957Z,101252.63
2022-10-24T22:06:53.662Z,101258.88
2022-10-24T22:09:55.701Z,101269.91
2022-10-24T22:12:57.713Z,101263.81
2022-10-24T22:15:59.887Z,101253.66
2022-10-24T22:19:04.554Z,101262.78
2022-10-24T22:22:06.662Z,101265.22
2022-10-24T22:25:08.930Z,101267.78
2022-10-24T22:28:11.599Z,101253.81
2022-10-24T22:31:14.924Z,101272.00
2022-10-24T22:34:26.004Z,101277.06
2022-10-24T22:37:30.908Z,101266.03
2022-10-24T22:40:33.374Z,101250.00
2022-10-24T22:43:35.786Z,101262.69
2022-10-24T22:47:15.973Z,101257.28
2022-10-24T22:50:21.814Z,101254.25
2022-10-24T22:53:27.440Z,101254.94
2022-10-24T22:56:33.605Z,101250.19
2022-10-24T22:59:36.187Z,101242.28
2022-10-24T23:02:44.880Z,101246.03
2022-10-24T23:06:12.898Z,101250.06
2022-10-24T23:09:15.378Z,101247.06
2022-10-24T23:12:19.910Z,101242.34
2022-10-24T23:15:22.509Z,101241.50
2022-10-24T23:18:24.677Z,101236.25
2022-10-24T23:21:55.170Z,101231.88
2022-10-24T23:24:59.710Z,101234.63
2022-10-24T23:28:24.320Z,101238.50
2022-10-24T23:31:26.660Z,101238.16
2022-10-24T23:34:29.129Z,101234.09
2022-10-24T23:37:33.435Z,101224.91
2022-10-24T23:40:37.316Z,101219.78
2022-10-24T23:43:39.681Z,101214.72
2022-10-24T23:46:46.938Z,101209.50
2022-10-24T23:50:02.841Z,101212.03
2022-10-24T23:53:35.625Z,101215.75
2022-10-24T23:56:38.305Z,101200.06
2022-10-24T23:59:40.321Z,101206.44
